Time;durP1;ratioP1;P1;durP2;ratioP2;P2;SDS_P1;SDS_P2;PMS_P1;PMS_P2;Temp;Humidity;BMP_temperature;BMP_pressure;BME280_temperature;BME280_humidity;BME280_pressure;Samples;Min_cycle;Max_cycle;Signal;HPM_P1;HPM_P2
2021/11/12 00:13:27;;;;;;;;;;;-1.40;99.90;;;;;;5073054;28;19914;-74
2021/11/12 00:15:53;;;;;;;;;;;-1.40;99.90;;;;;;5069388;28;20325;-74
2021/11/12 00:18:20;;;;;;;;;;;-1.50;99.90;;;;;;5072885;28;19909;-74
2021/11/12 00:20:46;;;;;;;;;;;-1.60;99.90;;;;;;5071971;28;19935;-74
2021/11/12 00:23:12;;;;;;;;;;;-1.60;99.90;;;;;;5054495;28;20363;-74
2021/11/12 00:25:38;;;;;;;;;;;-1.40;99.90;;;;;;5072343;28;20378;-74
2021/11/12 00:28:04;;;;;;;;;;;-1.30;99.90;;;;;;5072172;28;19961;-74
2021/11/12 00:30:49;;;;;;;;;;;-1.40;99.90;;;;;;5073379;28;19912;-74
2021/11/12 00:38:54;;;;;;;;;;;-1.60;99.90;;;;;;5050699;28;19954;-74
2021/11/12 00:44:01;;;;;;;;;;;-1.60;99.90;;;;;;5092420;28;20003;-74
2021/11/12 00:46:40;;;;;;;;;;;-1.70;99.90;;;;;;5092250;28;19951;-74
2021/11/12 00:49:12;;;;;;;;;;;-1.70;99.90;;;;;;5092283;28;19961;-74
2021/11/12 00:51:46;;;;;;;;;;;-1.70;99.90;;;;;;5091597;28;19914;-74
2021/11/12 00:54:15;;;;;;;;;;;-1.70;99.90;;;;;;5073869;28;20363;-74
2021/11/12 00:56:41;;;;;;;;;;;-1.50;99.90;;;;;;5073900;28;19916;-74
2021/11/12 00:59:07;;;;;;;;;;;-1.60;99.90;;;;;;5091473;28;19916;-74
2021/11/12 01:01:34;;;;;;;;;;;-1.80;99.90;;;;;;5080781;28;20438;-74
2021/11/12 01:04:01;;;;;;;;;;;-1.70;99.90;;;;;;5071469;28;19908;-74
2021/11/12 01:06:26;;;;;;;;;;;-1.60;99.90;;;;;;5072117;28;19909;-74
2021/11/12 01:08:52;;;;;;;;;;;-1.60;99.90;;;;;;5071599;28;20287;-74
2021/11/12 01:11:18;;;;;;;;;;;-1.70;99.90;;;;;;5071182;28;19923;-74
2021/11/12 01:13:47;;;;;;;;;;;-1.70;99.90;;;;;;5071451;28;19908;-74
2021/11/12 01:16:13;;;;;;;;;;;-1.80;99.90;;;;;;5071541;28;19962;-74
2021/11/12 01:18:38;;;;;;;;;;;-1.80;99.90;;;;;;5071273;28;20363;-74
2021/11/12 01:21:06;;;;;;;;;;;-1.80;99.90;;;;;;5071127;28;19909;-74
2021/11/12 01:23:32;;;;;;;;;;;-1.80;99.90;;;;;;5071431;28;19915;-74
2021/11/12 01:25:57;;;;;;;;;;;-1.70;99.90;;;;;;5076708;28;20321;-74
2021/11/12 01:28:23;;;;;;;;;;;-1.70;99.90;;;;;;5091354;28;19912;-74
2021/11/12 01:30:48;;;;;;;;;;;-1.80;99.90;;;;;;5091174;28;20271;-74
2021/11/12 01:33:14;;;;;;;;;;;-1.90;99.90;;;;;;5091591;28;19912;-74
2021/11/12 01:35:42;;;;;;;;;;;-1.90;99.90;;;;;;5091702;28;19908;-74
2021/11/12 01:38:07;;;;;;;;;;;-1.70;99.90;;;;;;5073480;28;19912;-74
2021/11/12 01:40:33;;;;;;;;;;;-1.80;99.90;;;;;;5091055;28;20393;-74
2021/11/12 01:43:24;;;;;;;;;;;-1.80;99.90;;;;;;5091470;28;19908;-74
2021/11/12 01:46:06;;;;;;;;;;;-1.90;99.90;;;;;;5090165;28;20211;-74
2021/11/12 01:53:30;;;;;;;;;;;-1.80;99.90;;;;;;5071350;28;19909;-74
2021/11/12 02:01:40;;;;;;;;;;;-1.80;99.90;;;;;;5036559;28;19913;-74
2021/11/12 02:04:07;;;;;;;;;;;-2.00;99.90;;;;;;5071217;28;20371;-74
2021/11/12 02:06:33;;;;;;;;;;;-2.00;99.90;;;;;;5053064;28;19909;-74
2021/11/12 02:09:00;;;;;;;;;;;-1.90;99.90;;;;;;5071284;28;19909;-74
2021/11/12 02:11:25;;;;;;;;;;;-1.90;99.90;;;;;;5074221;28;19916;-74
2021/11/12 02:13:51;;;;;;;;;;;-2.00;99.90;;;;;;5075288;28;20413;-74
2021/11/12 02:16:23;;;;;;;;;;;-1.90;99.90;;;;;;5075131;28;20453;-74
2021/11/12 02:18:49;;;;;;;;;;;-1.90;99.90;;;;;;5073393;28;19908;-74
2021/11/12 02:24:09;;;;;;;;;;;-1.90;99.90;;;;;;5075194;28;19917;-74
2021/11/12 02:26:38;;;;;;;;;;;-2.00;99.90;;;;;;5073491;28;20260;-74
2021/11/12 02:29:06;;;;;;;;;;;-2.00;99.90;;;;;;5074901;28;20283;-74
2021/11/12 02:31:31;;;;;;;;;;;-2.10;99.90;;;;;;5074020;28;20130;-74
2021/11/12 02:34:03;;;;;;;;;;;-2.20;99.90;;;;;;5074654;28;20018;-74
2021/11/12 02:36:28;;;;;;;;;;;-2.20;99.90;;;;;;5074713;28;19908;-74
2021/11/12 02:38:54;;;;;;;;;;;-2.20;99.90;;;;;;5074375;28;19915;-74
2021/11/12 02:41:20;;;;;;;;;;;-2.30;99.90;;;;;;5073908;28;19909;-74
2021/11/12 02:43:47;;;;;;;;;;;-2.10;99.90;;;;;;5073085;28;20276;-74
2021/11/12 02:46:16;;;;;;;;;;;-2.20;99.90;;;;;;5078628;28;19961;-74
2021/11/12 02:48:42;;;;;;;;;;;-2.20;99.90;;;;;;5082405;28;19912;-74
2021/11/12 02:51:20;;;;;;;;;;;-2.20;99.90;;;;;;5073781;28;20280;-74
2021/11/12 02:53:46;;;;;;;;;;;-2.10;99.90;;;;;;5074200;28;20340;-74
2021/11/12 02:56:15;;;;;;;;;;;-2.00;99.90;;;;;;5074121;28;19909;-74
2021/11/12 02:58:41;;;;;;;;;;;-2.00;99.90;;;;;;5055941;28;20019;-74
2021/11/12 03:01:08;;;;;;;;;;;-2.10;99.90;;;;;;5073585;28;19958;-74
2021/11/12 03:03:34;;;;;;;;;;;-2.10;99.90;;;;;;5056061;28;19943;-73
2021/11/12 03:06:00;;;;;;;;;;;-2.00;99.90;;;;;;5074030;28;20350;-74
2021/11/12 03:08:27;;;;;;;;;;;-2.10;99.90;;;;;;5073867;28;19909;-74
2021/11/12 03:10:55;;;;;;;;;;;-2.10;99.90;;;;;;5073291;28;19916;-74
2021/11/12 03:13:21;;;;;;;;;;;-2.20;99.90;;;;;;5073794;28;20398;-74
2021/11/12 03:15:46;;;;;;;;;;;-2.20;99.90;;;;;;5073786;28;19912;-74
2021/11/12 03:18:12;;;;;;;;;;;-2.20;99.90;;;;;;5089693;28;19930;-74
2021/11/12 03:20:39;;;;;;;;;;;-2.10;99.90;;;;;;5093011;28;19912;-73
2021/11/12 03:23:13;;;;;;;;;;;-2.20;99.90;;;;;;5094408;28;19908;-74
2021/11/12 03:50:00;;;;;;;;;;;-2.40;99.90;;;;;;5073076;28;20066;-74
2021/11/12 04:00:36;;;;;;;;;;;-2.40;99.90;;;;;;5072692;28;19951;-74
2021/11/12 04:05:49;;;;;;;;;;;-2.40;99.90;;;;;;5072933;28;19916;-74
2021/11/12 04:22:13;;;;;;;;;;;-2.50;99.90;;;;;;5092454;28;19915;-73
2021/11/12 05:09:35;;;;;;;;;;;-2.50;99.90;;;;;;5092396;28;19966;-74
2021/11/12 05:34:13;;;;;;;;;;;-1.90;99.90;;;;;;5071434;28;19962;-74
2021/11/12 05:44:37;;;;;;;;;;;-1.90;99.90;;;;;;5071059;28;20381;-74
2021/11/12 05:49:44;;;;;;;;;;;-1.90;99.90;;;;;;5077384;28;19908;-74
2021/11/12 05:50:11;;;;;;;;;;;-1.90;99.90;;;;;;5090509;28;19915;-75
2021/11/12 05:55:21;;;;;;;;;;;-1.70;99.90;;;;;;5091318;28;19920;-74
2021/11/12 05:57:46;;;;;;;;;;;-1.70;99.90;;;;;;5091066;28;19908;-74
2021/11/12 06:00:14;;;;;;;;;;;-1.70;99.90;;;;;;5090762;28;19912;-74
2021/11/12 06:02:39;;;;;;;;;;;-1.70;99.90;;;;;;5072969;28;20011;-74
2021/11/12 06:05:05;;;;;;;;;;;-1.60;99.90;;;;;;5072898;28;20081;-74
2021/11/12 06:07:30;;;;;;;;;;;-1.60;99.90;;;;;;5091121;28;19908;-74
2021/11/12 06:09:56;;;;;;;;;;;-1.70;99.90;;;;;;5090907;28;19913;-74
2021/11/12 06:12:22;;;;;;;;;;;-1.70;99.90;;;;;;5090914;28;20381;-74
2021/11/12 06:14:48;;;;;;;;;;;-1.80;99.90;;;;;;5090864;28;20000;-74
2021/11/12 06:17:13;;;;;;;;;;;-1.90;99.90;;;;;;5082823;28;19951;-74
2021/11/12 06:19:39;;;;;;;;;;;-1.90;99.90;;;;;;5070156;28;20018;-74
2021/11/12 06:22:04;;;;;;;;;;;-1.90;99.90;;;;;;5085278;28;19908;-74
2021/11/12 06:24:30;;;;;;;;;;;-1.80;99.90;;;;;;5090770;28;19961;-74
2021/11/12 06:26:56;;;;;;;;;;;-1.80;99.90;;;;;;5072544;28;19995;-74
2021/11/12 06:29:22;;;;;;;;;;;-1.70;99.90;;;;;;5090809;28;19955;-74
2021/11/12 06:31:48;;;;;;;;;;;-1.70;99.90;;;;;;5090550;28;19932;-74
2021/11/12 06:34:14;;;;;;;;;;;-1.70;99.90;;;;;;5090967;28;19991;-74
2021/11/12 06:36:39;;;;;;;;;;;-1.60;99.90;;;;;;5090909;28;19999;-74
2021/11/12 06:39:06;;;;;;;;;;;-1.50;99.90;;;;;;5072658;28;20291;-74
2021/11/12 06:51:54;;;;;;;;;;;-1.60;99.90;;;;;;5076447;28;20355;-74
2021/11/12 06:54:20;;;;;;;;;;;-1.60;99.90;;;;;;5070521;28;19995;-74
2021/11/12 06:56:47;;;;;;;;;;;-1.50;99.90;;;;;;5072982;28;19908;-74
2021/11/12 06:59:13;;;;;;;;;;;-1.60;99.90;;;;;;5056282;28;20390;-74
2021/11/12 07:01:38;;;;;;;;;;;-1.60;99.90;;;;;;5073765;28;19916;-74
2021/11/12 07:04:04;;;;;;;;;;;-1.40;99.90;;;;;;5074062;28;20321;-74
2021/11/12 07:06:29;;;;;;;;;;;-1.30;99.90;;;;;;5073973;28;19909;-74
2021/11/12 07:08:55;;;;;;;;;;;-1.10;99.90;;;;;;5074007;28;19914;-74
2021/11/12 07:11:21;;;;;;;;;;;-1.10;99.90;;;;;;5073574;28;19924;-74
2021/11/12 07:13:47;;;;;;;;;;;-1.00;99.90;;;;;;5074091;28;19909;-74
2021/11/12 07:16:13;;;;;;;;;;;-1.00;99.90;;;;;;5074031;28;19916;-74
2021/11/12 07:18:39;;;;;;;;;;;-1.10;99.90;;;;;;5073915;28;19909;-74
2021/11/12 07:21:04;;;;;;;;;;;-1.20;99.90;;;;;;5079796;28;19912;-74
2021/11/12 07:23:30;;;;;;;;;;;-1.00;99.90;;;;;;5094336;28;19962;-74
2021/11/12 07:25:55;;;;;;;;;;;-1.00;99.90;;;;;;5090791;28;19986;-74
2021/11/12 07:28:24;;;;;;;;;;;-0.90;99.90;;;;;;5083918;28;19908;-74
2021/11/12 07:30:50;;;;;;;;;;;-1.10;99.90;;;;;;5091079;28;19990;-75
2021/11/12 07:33:17;;;;;;;;;;;-0.90;99.90;;;;;;5083913;28;20367;-74
2021/11/12 07:36:09;;;;;;;;;;;-0.90;99.90;;;;;;5079691;28;19999;-74
2021/11/12 07:39:17;;;;;;;;;;;-1.10;99.90;;;;;;5092170;28;19946;-74
2021/11/12 07:47:00;;;;;;;;;;;-1.00;99.90;;;;;;5073612;28;21129;-74
2021/11/12 07:49:22;;;;;;;;;;;-0.90;99.90;;;;;;5080634;28;19908;-74
2021/11/12 07:51:49;;;;;;;;;;;-1.00;99.90;;;;;;5072620;28;19908;-73
2021/11/12 07:54:15;;;;;;;;;;;-0.80;99.90;;;;;;5080404;28;19918;-74
2021/11/12 07:56:40;;;;;;;;;;;-0.50;99.90;;;;;;5084067;28;19981;-74
2021/11/12 07:59:06;;;;;;;;;;;-0.30;99.90;;;;;;5092452;28;20362;-74
2021/11/12 08:01:31;;;;;;;;;;;-0.30;99.90;;;;;;5073327;28;20378;-74
2021/11/12 08:04:00;;;;;;;;;;;-0.10;99.90;;;;;;5092970;28;20255;-74
2021/11/12 08:06:27;;;;;;;;;;;0.10;99.90;;;;;;5092704;28;19908;-73
2021/11/12 08:09:12;;;;;;;;;;;0.40;99.90;;;;;;5091595;28;19908;-74
2021/11/12 08:11:44;;;;;;;;;;;0.70;99.90;;;;;;5092306;28;19920;-74
2021/11/12 08:14:35;;;;;;;;;;;0.80;99.90;;;;;;5092945;28;19909;-74
2021/11/12 08:19:58;;;;;;;;;;;1.20;99.90;;;;;;5092158;28;19916;-74
2021/11/12 08:30:32;;;;;;;;;;;2.50;99.90;;;;;;5088794;28;20313;-74
2021/11/12 08:35:45;;;;;;;;;;;4.10;99.90;;;;;;5071957;28;19909;-74
2021/11/12 08:38:24;;;;;;;;;;;4.30;99.90;;;;;;5071904;28;19962;-74
2021/11/12 08:41:35;;;;;;;;;;;5.50;99.90;;;;;;5071106;28;19974;-74
2021/11/12 08:43:50;;;;;;;;;;;6.50;99.90;;;;;;5063018;28;19912;-74
2021/11/12 08:46:27;;;;;;;;;;;6.60;99.90;;;;;;5072102;28;19908;-75
2021/11/12 08:51:20;;;;;;;;;;;8.10;99.90;;;;;;5091828;28;19946;-75
2021/11/12 08:53:47;;;;;;;;;;;8.40;99.90;;;;;;5092168;28;19915;-74
2021/11/12 08:56:13;;;;;;;;;;;9.80;99.90;;;;;;5090157;28;19912;-75
2021/11/12 08:58:43;;;;;;;;;;;10.80;99.90;;;;;;5081705;28;19915;-74
2021/11/12 09:01:09;;;;;;;;;;;10.20;99.90;;;;;;5083349;28;19912;-75
2021/11/12 09:03:35;;;;;;;;;;;10.20;99.80;;;;;;5088761;28;19956;-75
2021/11/12 09:06:01;;;;;;;;;;;10.60;98.70;;;;;;5091031;28;19908;-75
2021/11/12 09:08:27;;;;;;;;;;;10.20;99.30;;;;;;5091768;28;19957;-75
2021/11/12 09:10:53;;;;;;;;;;;10.30;99.20;;;;;;5091140;28;20259;-75
2021/11/12 09:13:25;;;;;;;;;;;10.80;98.50;;;;;;5090774;28;19908;-75
2021/11/12 09:15:54;;;;;;;;;;;10.90;98.80;;;;;;5075381;28;20271;-75
2021/11/12 09:18:22;;;;;;;;;;;11.40;97.70;;;;;;5061459;28;19915;-75
2021/11/12 09:20:48;;;;;;;;;;;11.90;97.90;;;;;;5090420;28;19943;-75
2021/11/12 09:23:14;;;;;;;;;;;12.00;97.20;;;;;;5089309;28;20279;-75
2021/11/12 09:25:39;;;;;;;;;;;12.50;96.10;;;;;;5090335;28;19915;-75
2021/11/12 09:28:05;;;;;;;;;;;12.80;95.80;;;;;;5091190;28;19908;-75
2021/11/12 09:30:36;;;;;;;;;;;12.30;96.10;;;;;;5090749;28;19916;-75
2021/11/12 09:33:03;;;;;;;;;;;12.80;96.10;;;;;;5073451;28;19960;-75
2021/11/12 09:35:28;;;;;;;;;;;13.10;94.90;;;;;;5091688;28;20038;-75
2021/11/12 09:37:54;;;;;;;;;;;13.30;95.40;;;;;;5091731;28;20002;-75
2021/11/12 09:40:22;;;;;;;;;;;13.60;94.60;;;;;;5089738;28;19920;-75
2021/11/12 09:42:48;;;;;;;;;;;13.80;94.60;;;;;;5090351;28;19923;-75
2021/11/12 09:45:14;;;;;;;;;;;14.10;93.60;;;;;;5090865;28;19909;-76
2021/11/12 09:47:40;;;;;;;;;;;14.70;93.20;;;;;;5087678;28;19908;-74
2021/11/12 09:50:08;;;;;;;;;;;13.60;93.20;;;;;;5070061;28;19915;-75
2021/11/12 09:52:34;;;;;;;;;;;14.90;93.20;;;;;;5069938;28;19908;-74
2021/11/12 09:55:00;;;;;;;;;;;15.00;92.70;;;;;;5052857;28;20282;-74
2021/11/12 09:57:26;;;;;;;;;;;14.30;93.30;;;;;;5070980;28;20395;-74
2021/11/12 09:59:53;;;;;;;;;;;14.60;92.80;;;;;;5075831;28;19917;-74
2021/11/12 10:02:19;;;;;;;;;;;15.10;92.20;;;;;;5070109;28;19909;-74
2021/11/12 10:04:45;;;;;;;;;;;15.20;92.20;;;;;;5070744;28;20237;-74
2021/11/12 10:07:13;;;;;;;;;;;15.30;92.60;;;;;;5070879;28;19909;-75
2021/11/12 10:09:39;;;;;;;;;;;15.50;92.20;;;;;;5070168;28;19998;-75
2021/11/12 10:12:06;;;;;;;;;;;14.40;92.40;;;;;;5052396;28;19920;-75
2021/11/12 10:14:47;;;;;;;;;;;14.80;93.10;;;;;;5070386;28;19909;-74
2021/11/12 10:17:12;;;;;;;;;;;15.30;92.50;;;;;;5070289;28;20030;-75
2021/11/12 10:19:41;;;;;;;;;;;15.80;91.20;;;;;;5051994;28;19916;-73
2021/11/12 10:22:06;;;;;;;;;;;14.40;92.60;;;;;;5071206;28;19913;-75
2021/11/12 10:24:36;;;;;;;;;;;15.10;92.40;;;;;;5052248;28;19919;-74
2021/11/12 10:27:15;;;;;;;;;;;15.40;92.60;;;;;;5070029;28;19913;-76
2021/11/12 10:29:55;;;;;;;;;;;15.40;92.30;;;;;;5059105;28;20283;-76
2021/11/12 10:32:21;;;;;;;;;;;12.90;94.60;;;;;;5073486;28;19908;-75
2021/11/12 10:34:48;;;;;;;;;;;12.10;96.00;;;;;;5074183;28;20056;-75
2021/11/12 10:37:18;;;;;;;;;;;11.10;98.00;;;;;;5074155;28;20065;-75
2021/11/12 10:39:45;;;;;;;;;;;10.20;99.90;;;;;;5055994;28;19966;-75
2021/11/12 10:42:12;;;;;;;;;;;9.70;99.90;;;;;;5074248;28;19915;-76
2021/11/12 10:44:45;;;;;;;;;;;9.70;99.90;;;;;;5073983;28;19912;-75
2021/11/12 10:47:12;;;;;;;;;;;10.10;99.90;;;;;;5074012;28;19967;-75
2021/11/12 10:49:39;;;;;;;;;;;10.00;99.90;;;;;;5073614;28;19923;-75
2021/11/12 10:52:08;;;;;;;;;;;9.80;99.90;;;;;;5056617;28;19908;-75
2021/11/12 10:55:21;;;;;;;;;;;9.70;99.90;;;;;;5073428;28;20281;-76
2021/11/12 10:57:27;;;;;;;;;;;9.50;99.90;;;;;;5062172;28;19912;-75
2021/11/12 10:59:54;;;;;;;;;;;9.00;99.90;;;;;;5086883;28;20355;-75
2021/11/12 11:02:25;;;;;;;;;;;9.40;99.90;;;;;;5073321;28;19912;-76
2021/11/12 11:04:51;;;;;;;;;;;9.10;99.90;;;;;;5073639;28;19908;-75
2021/11/12 11:07:21;;;;;;;;;;;8.60;99.90;;;;;;5055702;28;19915;-75
2021/11/12 11:09:47;;;;;;;;;;;8.40;99.90;;;;;;5084492;28;20317;-79
2021/11/12 11:12:31;;;;;;;;;;;8.30;99.90;;;;;;5076588;28;20033;-74
2021/11/12 11:15:09;;;;;;;;;;;8.20;99.90;;;;;;5079444;28;19908;-74
2021/11/12 11:17:37;;;;;;;;;;;8.20;99.90;;;;;;5073336;28;19912;-75
2021/11/12 11:20:11;;;;;;;;;;;8.00;99.90;;;;;;5072291;28;20293;-75
2021/11/12 11:22:49;;;;;;;;;;;8.00;99.90;;;;;;5073737;28;19908;-75
2021/11/12 11:25:14;;;;;;;;;;;7.90;99.90;;;;;;5071491;28;19995;-75
2021/11/12 11:27:42;;;;;;;;;;;7.90;99.90;;;;;;5073082;28;19987;-74
2021/11/12 11:30:08;;;;;;;;;;;8.10;99.90;;;;;;5072900;28;19912;-75
2021/11/12 11:32:34;;;;;;;;;;;8.10;99.90;;;;;;5083069;28;20370;-75
2021/11/12 11:35:00;;;;;;;;;;;7.90;99.90;;;;;;5093588;28;19963;-75
2021/11/12 11:37:26;;;;;;;;;;;8.00;99.90;;;;;;5092950;28;19940;-75
2021/11/12 11:39:53;;;;;;;;;;;8.10;99.90;;;;;;5091308;28;19912;-74
2021/11/12 11:42:19;;;;;;;;;;;8.30;99.90;;;;;;5075913;28;20325;-75
2021/11/12 11:44:45;;;;;;;;;;;8.10;99.90;;;;;;5073124;28;19913;-75
2021/11/12 11:47:10;;;;;;;;;;;8.00;99.90;;;;;;5071870;28;19920;-75
2021/11/12 11:49:37;;;;;;;;;;;7.90;99.90;;;;;;5072609;28;20291;-73
2021/11/12 11:52:04;;;;;;;;;;;7.80;99.90;;;;;;5054482;28;19909;-75
2021/11/12 11:54:33;;;;;;;;;;;7.80;99.90;;;;;;5072882;28;20298;-74
2021/11/12 11:57:09;;;;;;;;;;;7.90;99.90;;;;;;5072328;28;19909;-75
2021/11/12 11:59:36;;;;;;;;;;;7.90;99.90;;;;;;5083500;28;19923;-75
2021/11/12 12:02:05;;;;;;;;;;;7.80;99.90;;;;;;5086362;28;20355;-75
2021/11/12 12:04:36;;;;;;;;;;;7.90;99.90;;;;;;5071757;28;19908;-75
2021/11/12 12:07:02;;;;;;;;;;;8.00;99.90;;;;;;5072745;28;19954;-75
2021/11/12 12:09:47;;;;;;;;;;;8.00;99.90;;;;;;5054850;28;19912;-75
2021/11/12 12:12:14;;;;;;;;;;;8.10;99.90;;;;;;5073022;28;19993;-75
2021/11/12 12:14:40;;;;;;;;;;;8.10;99.90;;;;;;5084134;28;19893;-74
2021/11/12 12:17:22;;;;;;;;;;;8.10;99.90;;;;;;5097055;28;19922;-73
2021/11/12 12:19:58;;;;;;;;;;;8.20;99.90;;;;;;5090547;28;19921;-75
2021/11/12 13:21:54;;;;;;;;;;;8.40;99.90;;;;;;5085784;28;19946;-75
2021/11/12 13:24:32;;;;;;;;;;;8.90;99.90;;;;;;5062341;28;19918;-75
2021/11/12 13:26:38;;;;;;;;;;;8.90;99.90;;;;;;5069143;28;20294;-75
2021/11/12 13:29:05;;;;;;;;;;;8.70;99.90;;;;;;5057935;28;19940;-75
2021/11/12 13:31:31;;;;;;;;;;;8.60;99.90;;;;;;5064416;28;19931;-75
2021/11/12 13:33:58;;;;;;;;;;;8.70;99.90;;;;;;5073168;28;19909;-76
2021/11/12 13:36:28;;;;;;;;;;;8.80;99.90;;;;;;5058778;28;19916;-75
2021/11/12 13:38:56;;;;;;;;;;;8.90;99.90;;;;;;5059111;28;19908;-75
2021/11/12 13:41:42;;;;;;;;;;;8.80;99.90;;;;;;5050790;28;19912;-75
2021/11/12 13:44:08;;;;;;;;;;;8.90;99.90;;;;;;5074334;28;19916;-75
2021/11/12 13:46:53;;;;;;;;;;;9.00;99.90;;;;;;5088894;28;19915;-75
2021/11/12 13:49:26;;;;;;;;;;;9.00;99.90;;;;;;5082801;28;20007;-74
2021/11/12 13:51:52;;;;;;;;;;;8.90;99.90;;;;;;5086318;28;19908;-75
2021/11/12 13:54:18;;;;;;;;;;;9.00;99.90;;;;;;5091927;28;20294;-73
2021/11/12 13:56:43;;;;;;;;;;;9.00;99.90;;;;;;5070465;28;19916;-75
2021/11/12 13:59:10;;;;;;;;;;;8.90;99.90;;;;;;5071225;28;19962;-75
2021/11/12 14:01:36;;;;;;;;;;;8.80;99.90;;;;;;5071807;28;19908;-74
2021/11/12 14:04:02;;;;;;;;;;;8.90;99.90;;;;;;5076127;28;19932;-76
2021/11/12 14:06:34;;;;;;;;;;;8.50;99.90;;;;;;5090471;28;20358;-75
2021/11/12 14:09:03;;;;;;;;;;;8.50;99.90;;;;;;5074875;28;19909;-73
2021/11/12 14:11:30;;;;;;;;;;;8.20;99.90;;;;;;5074946;28;20291;-75
2021/11/12 14:13:59;;;;;;;;;;;8.20;99.90;;;;;;5057751;28;20359;-75
2021/11/12 14:16:27;;;;;;;;;;;8.10;99.90;;;;;;5077823;28;19915;-75
2021/11/12 14:21:44;;;;;;;;;;;8.60;99.90;;;;;;5101758;28;19969;-75
2021/11/12 14:24:56;;;;;;;;;;;8.60;99.90;;;;;;5086323;28;19912;-75
2021/11/12 14:40:51;;;;;;;;;;;8.40;99.90;;;;;;5081530;28;19965;-75
2021/11/12 14:56:18;;;;;;;;;;;7.70;99.90;;;;;;5092983;28;19908;-74
2021/11/12 14:58:59;;;;;;;;;;;7.70;99.90;;;;;;5087544;28;19960;-75
2021/11/12 15:01:26;;;;;;;;;;;7.70;99.90;;;;;;5086607;28;19965;-75
2021/11/12 15:03:52;;;;;;;;;;;7.60;99.90;;;;;;5066223;28;19912;-75
2021/11/12 15:06:20;;;;;;;;;;;7.40;99.90;;;;;;5078250;28;20283;-73
2021/11/12 15:08:55;;;;;;;;;;;7.30;99.90;;;;;;5072465;28;20974;-75
2021/11/12 15:11:23;;;;;;;;;;;7.10;99.90;;;;;;5075247;28;19938;-74
2021/11/12 15:13:50;;;;;;;;;;;6.90;99.90;;;;;;5061567;28;19915;-75
2021/11/12 15:16:21;;;;;;;;;;;6.80;99.90;;;;;;5092652;28;19908;-74
2021/11/12 15:18:47;;;;;;;;;;;6.50;99.90;;;;;;5092972;28;20374;-75
2021/11/12 15:21:19;;;;;;;;;;;6.50;99.90;;;;;;5091936;28;19955;-75
2021/11/12 15:23:56;;;;;;;;;;;6.30;99.90;;;;;;5087484;28;19912;-75
2021/11/12 15:31:37;;;;;;;;;;;5.90;99.90;;;;;;5088058;28;19912;-74
2021/11/12 15:34:05;;;;;;;;;;;5.60;99.90;;;;;;5081031;28;20274;-75
2021/11/12 15:36:33;;;;;;;;;;;5.50;99.90;;;;;;5091978;28;19908;-75
2021/11/12 15:39:10;;;;;;;;;;;5.30;99.90;;;;;;5085514;28;19912;-75
2021/11/12 15:44:12;;;;;;;;;;;5.10;99.90;;;;;;5089661;28;20388;-75
2021/11/12 15:46:44;;;;;;;;;;;4.90;99.90;;;;;;5075458;28;19912;-75
2021/11/12 15:49:10;;;;;;;;;;;4.90;99.90;;;;;;5084048;28;19999;-74
2021/11/12 15:51:46;;;;;;;;;;;4.80;99.90;;;;;;5088571;28;19943;-75
2021/11/12 15:57:25;;;;;;;;;;;4.50;99.90;;;;;;5038389;28;20375;-74
2021/11/12 16:07:33;;;;;;;;;;;4.00;99.90;;;;;;5093580;28;19908;-73
2021/11/12 16:15:24;;;;;;;;;;;3.70;99.90;;;;;;5093534;28;19908;-74
2021/11/12 16:18:22;;;;;;;;;;;3.60;99.90;;;;;;5074874;28;20432;-74
2021/11/12 16:20:47;;;;;;;;;;;3.50;99.90;;;;;;5091669;28;20015;-75
2021/11/12 16:25:59;;;;;;;;;;;3.30;99.90;;;;;;5082483;28;19967;-74
2021/11/12 16:28:26;;;;;;;;;;;3.00;99.90;;;;;;5089899;28;19912;-74
2021/11/12 16:30:57;;;;;;;;;;;2.80;99.90;;;;;;5054313;28;19912;-74
2021/11/12 16:33:24;;;;;;;;;;;2.90;99.90;;;;;;5071932;28;19960;-74
2021/11/12 16:35:51;;;;;;;;;;;3.10;99.90;;;;;;5055624;28;19915;-74
2021/11/12 16:38:23;;;;;;;;;;;2.80;99.90;;;;;;5055360;28;20099;-75
2021/11/12 16:40:56;;;;;;;;;;;2.60;99.90;;;;;;5053244;28;19912;-74
2021/11/12 16:44:00;;;;;;;;;;;2.70;99.90;;;;;;5072304;28;19909;-75
2021/11/12 16:46:20;;;;;;;;;;;2.70;99.90;;;;;;5074361;28;20312;-73
2021/11/12 16:54:11;;;;;;;;;;;2.60;99.90;;;;;;5072150;28;20288;-73
2021/11/12 17:02:15;;;;;;;;;;;2.50;99.90;;;;;;5077099;28;20005;-73
2021/11/12 17:04:47;;;;;;;;;;;2.30;99.90;;;;;;5071431;28;19916;-73
2021/11/12 17:07:39;;;;;;;;;;;2.30;99.90;;;;;;5072156;28;19999;-73
2021/11/12 17:12:49;;;;;;;;;;;2.20;99.90;;;;;;5072339;28;20557;-73
2021/11/12 17:15:39;;;;;;;;;;;2.20;99.90;;;;;;5072080;28;20366;-73
2021/11/12 17:47:34;;;;;;;;;;;1.90;99.90;;;;;;5049945;28;19908;-73
2021/11/12 17:50:11;;;;;;;;;;;1.90;99.90;;;;;;5091337;28;19916;-73
2021/11/12 18:03:24;;;;;;;;;;;1.80;99.90;;;;;;5071926;28;19985;-76
2021/11/12 18:11:37;;;;;;;;;;;1.60;99.90;;;;;;5071396;28;19927;-75
2021/11/12 18:14:18;;;;;;;;;;;1.60;99.90;;;;;;5070826;28;20408;-75
2021/11/12 18:22:20;;;;;;;;;;;1.80;99.90;;;;;;5071240;28;20256;-73
2021/11/12 21:45:53;;;;;;;;;;;-0.90;99.90;;;;;;5072575;28;19973;-76
2021/11/12 21:48:12;;;;;;;;;;;-0.80;99.90;;;;;;5071278;28;19908;-76
2021/11/12 21:50:38;;;;;;;;;;;-0.70;99.90;;;;;;5073995;28;20389;-76
2021/11/12 21:53:04;;;;;;;;;;;-0.60;99.90;;;;;;5073874;28;19912;-75
2021/11/12 21:55:32;;;;;;;;;;;-0.80;99.90;;;;;;5092011;28;20362;-74
2021/11/12 21:57:58;;;;;;;;;;;-0.90;99.90;;;;;;5092008;28;19912;-76
2021/11/12 22:00:24;;;;;;;;;;;-0.90;99.90;;;;;;5089939;28;20321;-76
2021/11/12 22:02:49;;;;;;;;;;;-1.00;99.90;;;;;;5084634;28;20427;-75
2021/11/12 22:05:15;;;;;;;;;;;-1.00;99.90;;;;;;5091045;28;19909;-76
2021/11/12 22:07:40;;;;;;;;;;;-1.20;99.90;;;;;;5071425;28;19908;-76
2021/11/12 22:10:07;;;;;;;;;;;-1.20;99.90;;;;;;5070959;28;20395;-77
2021/11/12 22:12:33;;;;;;;;;;;-1.20;99.90;;;;;;5072334;28;19908;-76
2021/11/12 22:14:59;;;;;;;;;;;-1.40;99.90;;;;;;5073112;28;20371;-76
2021/11/12 22:17:25;;;;;;;;;;;-1.40;99.90;;;;;;5073894;28;19912;-75
2021/11/12 22:19:50;;;;;;;;;;;-1.30;99.90;;;;;;5053416;28;20389;-75
2021/11/12 22:22:16;;;;;;;;;;;-1.40;99.90;;;;;;5071760;28;20419;-76
2021/11/12 22:24:42;;;;;;;;;;;-1.40;99.90;;;;;;5053750;28;19913;-75
2021/11/12 22:27:07;;;;;;;;;;;-1.40;99.90;;;;;;5073188;28;20294;-75
2021/11/12 22:29:33;;;;;;;;;;;-1.50;99.90;;;;;;5075779;28;20027;-74
2021/11/12 22:32:00;;;;;;;;;;;-1.50;99.90;;;;;;5089903;28;20395;-75
2021/11/12 22:34:25;;;;;;;;;;;-1.60;99.90;;;;;;5096121;28;19930;-75
2021/11/12 22:36:51;;;;;;;;;;;-1.60;99.90;;;;;;5090980;28;20003;-75
2021/11/12 22:39:18;;;;;;;;;;;-1.60;99.90;;;;;;5057846;28;20289;-75
2021/11/12 22:41:44;;;;;;;;;;;-1.50;99.90;;;;;;5078767;28;20313;-75
2021/11/12 22:44:10;;;;;;;;;;;-1.60;99.90;;;;;;5095237;28;19939;-75
2021/11/12 22:46:37;;;;;;;;;;;-1.70;99.90;;;;;;5077738;28;19955;-73
2021/11/12 22:49:02;;;;;;;;;;;-1.70;99.90;;;;;;5080464;28;19909;-74
2021/11/12 22:51:30;;;;;;;;;;;-1.60;99.90;;;;;;5075125;28;20258;-73
2021/11/12 22:53:56;;;;;;;;;;;-1.60;99.90;;;;;;5080474;28;20346;-73
2021/11/12 22:56:21;;;;;;;;;;;-1.60;99.90;;;;;;5077187;28;19908;-72
2021/11/12 22:58:47;;;;;;;;;;;-1.70;99.90;;;;;;5094648;28;20007;-72
2021/11/12 23:01:15;;;;;;;;;;;-1.80;99.90;;;;;;5078663;28;19916;-73
2021/11/12 23:03:41;;;;;;;;;;;-1.90;99.90;;;;;;5075057;28;19916;-74
2021/11/12 23:06:06;;;;;;;;;;;-1.80;99.90;;;;;;5081652;28;19908;-73
2021/11/12 23:08:32;;;;;;;;;;;-1.70;99.90;;;;;;5095130;28;19912;-73
2021/11/12 23:10:58;;;;;;;;;;;-1.70;99.90;;;;;;5094256;28;19927;-73
2021/11/12 23:13:25;;;;;;;;;;;-1.70;99.90;;;;;;5077132;28;19999;-73
2021/11/12 23:15:52;;;;;;;;;;;-1.70;99.90;;;;;;5074479;28;19912;-74
2021/11/12 23:18:17;;;;;;;;;;;-1.80;99.90;;;;;;5091460;28;19920;-72
2021/11/12 23:20:43;;;;;;;;;;;-1.90;99.90;;;;;;5074068;28;19919;-75
2021/11/12 23:23:08;;;;;;;;;;;-1.90;99.90;;;;;;5079584;28;19908;-76
2021/11/12 23:25:34;;;;;;;;;;;-1.80;99.90;;;;;;5074318;28;19919;-75
2021/11/12 23:28:00;;;;;;;;;;;-1.70;99.90;;;;;;5088325;28;20278;-75
2021/11/12 23:30:26;;;;;;;;;;;-1.80;99.90;;;;;;5094237;28;19953;-75
2021/11/12 23:32:51;;;;;;;;;;;-1.90;99.90;;;;;;5080955;28;19913;-76
2021/11/12 23:35:17;;;;;;;;;;;-1.90;99.90;;;;;;5074613;28;19916;-75
2021/11/12 23:37:42;;;;;;;;;;;-2.00;99.90;;;;;;5077607;28;19995;-76
2021/11/12 23:40:09;;;;;;;;;;;-1.80;99.90;;;;;;5095093;28;19923;-75
2021/11/12 23:42:35;;;;;;;;;;;-1.90;99.90;;;;;;5091663;28;19949;-76
2021/11/12 23:45:01;;;;;;;;;;;-2.00;99.90;;;;;;5073548;28;19908;-76
2021/11/12 23:47:27;;;;;;;;;;;-2.00;99.90;;;;;;5055854;28;19909;-75
2021/11/12 23:49:52;;;;;;;;;;;-1.90;99.90;;;;;;5068361;28;19915;-75
2021/11/12 23:52:18;;;;;;;;;;;-2.00;99.90;;;;;;5077075;28;19955;-76
2021/11/12 23:54:44;;;;;;;;;;;-2.00;99.90;;;;;;5089882;28;19912;-75
2021/11/12 23:57:09;;;;;;;;;;;-1.90;99.90;;;;;;5073493;28;19908;-75
2021/11/12 23:59:35;;;;;;;;;;;-1.90;99.90;;;;;;5075777;28;19916;-75
